Terminal Aerodrome Forecast
Issued by NWS

Home | Current Version | Previous Version | Text Only | Print | Product List | Glossary On
Versions: 1 2 3 4 5 6 7 8 9 10 11 12 13 14 15 16 17 18 19 20 21 22 23 24 25 26 27 28 29 30 31 32 33 34 35 36 37 38 39 40 41 42 43 44 45 46 47 48 49 50
000
FTUS44 KLIX 210718 AAA
TAFASD
TAF AMD
KASD 210718Z 2107/2206 16008KT 2SM -RA BR OVC002
      TEMPO 2107/2109 1/2SM FG VV002
     FM210900 16005KT 5SM -SHRA BR OVC005
      TEMPO 2110/2113 25030G48KT 1/2SM +TSRA BKN015CB
     FM211300 18007KT 5SM SHRA BR OVC003
     FM211600 20008KT P6SM BKN010 PROB30 2116/2120 SHRA
     FM212000 21009KT P6SM BKN025
     FM220200 20007KT P6SM BKN012=

USA.gov is the U.S. government's official web portal to all federal, state and local government web resources and services.